Princeton, Kentucky
Current Conditions -  °F | °C
As of 10:55 AM on Saturday 25 Oct 2014 (Local Time) from K5M9 Reporting Station
Scattered Clouds Scattered Clouds  
Wind Chill: 68°   Ceiling: Unl
Heat Index: 68°   Visibility: 10mi
Dew Point: 59°   Wind: 7mph
Humidity: 73%   Direction: 280°W
Pressure: 30.05"   Gusts: NA
Location:  37.11°N, 87.88°W
Report Text: K5M9 251555Z AUTO 28006KT 10SM SCT050 20/15 A3005 RMK AO2 T01990150
Loading
Personal Weather Stations






























Interactive Weather Map
Tropical Storm Tracking
New forecast layout! Learn more

10-Day Weather Forecast

Advertisements
Track Severe Weather on mobile